Pays
Station

 

Conditions  météo  pour  Tucuman Aerodrome  -  Argentine    Argentine

  
20 °C
    
 
 

METAR pour Tucuman Aerodrome :

SANT 191100Z 09006KT 7000 SCT004 OVC100 20/19 Q1014

 

Voici le bulletin pour Tucuman Aerodrome - Argentine.
 
Le bulletin a été fait il y a 43 minutes, à 11:00 UTC .
Le vent soufflait à la vitesse de 3.1 mètres par seconde de Est (090°).
 
La température était de 20 °C, avec un point de rosée à 19 °C.
La pression atmosphérique était de 1014 hPa.
L'humidité relative était de 94.0%.
 
Il y avait 3 à 4/8ème de nébulosité à une hauteur de 122 mètres. Le ciel était nuageux à partir d'une hauteur de 3048 mètres
 
La visibilité globale était de 7.0 kilomètres.
 

 
 
 

Pays :   A   B   C   D   E   F   G   H   I   J   K   L   M   N   O   P   Q   R   S   T   U   V   W   Y   Z

 

Partenaires :  Info Météo avec Met'info
Météo Marine avec MeteoMarine.net
Infos Site  |  Infos Légales  |  Crédits  |  Confidentialité
Contactez-nous  |  Ajouter aux favoris
© 2013-2018 METAR - Tous droits réservés